Tiempo atmosférico en la estación meteorológica de Capella, Huesca (600 m.)



Fecha
DESCASC
Temp. máxima en grados centígrados (hora)
DESCASC
Temp. mínima en grados centígrados (hora)
DESCASC
Temp. media en grados centígrados
DESCASC
Racha de viento máxima en m/sg (hora)
DESCASC
Velocidad máxima media en intervalos de 10 minutos(hora)
DESCASC
Precipitaciones diarias en mm
DESCASC
Precipitaciones de 00:00 a 06:00 en mm
DESCASC
Precipitaciones de 06:00 a 12:00 en mm
DESCASC
Precipitaciones de 12:00 a 18:00 en mm
DESCASC
Precipitaciones de 18:00 a 24:00 en mm
DESCASC
20-09-2020 24.8 (16:20) 10.3 (08:20) 17.5 8.33 (19:20) 4.44 (16:30) 0 0 0 0 0
19-09-2020 22.6 (17:20) 14.5 (23:59) 18.6 9.17 (15:10) 5.28 (15:10) 11.2 0.6 10.6 0 0
18-09-2020 23.4 (00:00) 17.3 (23:50) 20.3 10.28 (14:50) 6.11 (14:50) 5.8 0 0.2 1 4.6
17-09-2020 28.7 (12:30) 16 (00:00) 22.4 6.67 (13:50) 3.61 (12:10) 0 0 0 0 0
16-09-2020 31.3 (16:10) 13.9 (00:00) 22.6 8.89 (17:00) 5.28 (17:20) 0 0 0 0 0
15-09-2020 30.1 (16:30) 14.4 (00:00) 22.3 7.22 (17:50) 4.44 (18:20) 0 0 0 0 0
14-09-2020 31.4 (16:40) 12.7 (00:00) 22 7.78 (15:00) 4.17 (20:10) 0 0 0 0 0
13-09-2020 31.1 (16:20) 13.1 (00:00) 22.1 8.89 (17:00) 4.17 (17:20) 0 0 0 0 0
12-09-2020 30.2 (17:40) 13.7 (00:00) 22 8.06 (15:50) 4.72 (15:20) 0 0 0 0 0
11-09-2020 29.2 (15:10) 10.6 (00:00) 19.9 8.33 (15:30) 5 (15:50) 0 0 0 0 0
10-09-2020 28 (19:20) 12.5 (00:00) 20.3 6.94 (15:50) 3.89 (15:50) 0 0 0 0 0
09-09-2020 24.1 (15:00) 13.1 (00:00) 18.6 6.39 (21:50) 3.61 (20:20) 0 0 0 0 0
08-09-2020 27.1 (16:30) 8 (00:00) 17.6 8.33 (16:30) 5.28 (16:20) 0.4 0 0 0 0.4
07-09-2020 25.4 (17:20) 10.4 (07:50) 17.9 9.44 (17:40) 5.28 (21:00) 0 0 0 0 0
06-09-2020 27 (16:10) 14.6 (00:00) 20.8 10 (16:30) 5.83 (12:50) 0 0 0 0 0
05-09-2020 30.7 (17:10) 13.1 (00:00) 21.9 7.78 (15:50) 5 (17:50) 0 0 0 0 0
04-09-2020 30.5 (17:00) 12.2 (00:00) 21.3 8.33 (17:10) 4.17 (17:40) 0 0 0 0 0
03-09-2020 29 (18:10) 10.6 (00:00) 19.8 8.06 (14:30) 5 (15:20) 0 0 0 0 0
02-09-2020 25.9 (17:40) 9.7 (00:00) 17.8 7.78 (15:20) 5.28 (14:20) 0 0 0 0 0
01-09-2020 24.7 (17:20) 10.1 (00:00) 17.4 6.11 (15:00) 4.17 (15:00) 0 0 0 0 0
31-08-2020 24.4 (17:30) 6.9 (00:00) 15.6 8.33 (14:00) 5 (14:10) 0 0 0 0 0
30-08-2020 23.6 (17:50) 7.5 (00:00) 15.6 9.72 (18:50) 5.83 (18:50) 0 0 0 0 0
29-08-2020 24.4 (17:10) 11.3 (00:00) 17.8 9.17 (15:10) 4.17 (18:20) 0.4 0 0 0 0.4
28-08-2020 27.5 (18:30) 18.9 (00:00) 23.2 8.33 (11:10) 4.17 (19:50) 1.8 0 0 0 1.8
27-08-2020 33.2 (15:10) 17.8 (00:00) 25.5 9.17 (15:30) 5.83 (15:40) 0 0 0 0 0
26-08-2020 33.3 (16:50) 16.7 (00:00) 25 8.89 (14:30) 5.28 (15:10) 0 0 0 0 0
25-08-2020 33.1 (16:30) 12.8 (00:00) 22.9 7.78 (15:50) 4.72 (16:00) 0 0 0 0 0
24-08-2020 28.8 (18:30) 12.3 (00:00) 20.5 9.17 (13:20) 5.56 (15:30) 0 0 0 0 0
23-08-2020 29.4 (18:10) 11.8 (00:00) 20.6 8.61 (13:10) 6.11 (13:00) 0 0 0 0 0

Gráficas

Temp. máximas Temp. mínimas Temp. medias Precipitaciones Rachas de viento máximas Velocidades máximas media en intervalos de 10 minutos

Datos horarios

Fecha y hora oficial Temperatura (ºC) Velocidad del viento (km/h) Dirección del viento Racha (km/h) Dirección de racha Precipitación (mm) Presión (hPa) Tendencia (hPa) Humedad (%)
2020-09-21 23:00:00 14.2 4 Este 8 Nordeste 0 -- -- 91
2020-09-21 22:00:00 15 3 Nordeste 11 Nordeste 0 -- -- 90
2020-09-21 21:00:00 15.8 6 Nordeste 9 Nordeste 0 -- -- 90
2020-09-21 20:00:00 16.6 4 Nordeste 6 Nordeste 0.2 -- -- 86
2020-09-21 19:00:00 16.8 3 Norte 9 Nordeste 0 -- -- 85
2020-09-21 18:00:00 17.4 5 Nordeste 13 Nordeste 0 -- -- 81
2020-09-21 17:00:00 16.6 6 Sur 22 Norte 1.6 -- -- 81
2020-09-21 16:00:00 20.3 13 Noroeste 32 Oeste 0 -- -- 53
2020-09-21 15:00:00 20.9 9 Sur 23 Sur 0 -- -- 67
2020-09-21 14:00:00 22.8 12 Sudoeste 24 Sur 0 -- -- 56
2020-09-21 13:00:00 22.4 8 Sur 21 Sudoeste 0 -- -- 56
2020-09-21 12:00:00 20.3 5 Oeste 12 Oeste 0 -- -- 69
2020-09-21 11:00:00 18.8 8 Oeste 11 Sudoeste 0 -- -- 72
2020-09-21 10:00:00 16.7 3 Sudoeste 7 Sudoeste 0 -- -- 84
2020-09-21 09:00:00 15.4 3 Nordeste 4 Nordeste 0 -- -- 91
2020-09-21 08:00:00 14.8 2 Nordeste 5 Nordeste 0 -- -- 90
2020-09-21 07:00:00 14.9 0 Calma 5 Sudeste 0 -- -- 89
2020-09-21 06:00:00 15 4 Sudeste 5 Sudeste 0 -- -- 88
2020-09-21 05:00:00 15.5 0 Calma 5 Nordeste 0 -- -- 86
2020-09-21 04:00:00 16 4 Nordeste 6 Sudeste 0 -- -- 81
2020-09-21 03:00:00 16.2 0 Calma 6 Este 0 -- -- 83
2020-09-21 02:00:00 16.7 3 Este 9 Nordeste 0 -- -- 77
2020-09-21 01:00:00 16.7 5 Nordeste 8 Nordeste 0 -- -- 80
2020-09-21 00:00:00 17.4 3 Este 7 Sudeste 0 -- -- 74
2020-09-20 23:00:00 18.2 0 Calma 8 Nordeste 0 -- -- 70
2020-09-20 22:00:00 18.7 0 Calma 11 Sudoeste 0 -- -- 65
2020-09-20 21:00:00 20 6 Sur 17 Sudoeste 0 -- -- 56
2020-09-20 20:00:00 20.8 8 Sudoeste 30 Sur 0 -- -- 56
2020-09-20 19:00:00 23.3 13 Sudoeste 27 Sur 0 -- -- 48
2020-09-20 18:00:00 23.4 13 Sudoeste 23 Sudoeste 0 -- -- 47
2020-09-20 17:00:00 24.8 10 Sudoeste 26 Oeste 0 -- -- 44
2020-09-20 16:00:00 24.2 14 Sur 27 Sudoeste 0 -- -- 46
2020-09-20 15:00:00 23 10 Sudoeste 26 Sudoeste 0 -- -- 50
2020-09-20 14:00:00 23.2 10 Sudoeste 25 Oeste 0 -- -- 49
2020-09-20 13:00:00 21.5 9 Oeste 19 Oeste 0 -- -- 52
2020-09-20 12:00:00 20 7 Sudoeste 14 Sudoeste 0 -- -- 57
2020-09-20 11:00:00 18.2 3 Este 8 Sudeste 0 -- -- 67
2020-09-20 10:00:00 15.3 3 Este 8 Este 0 -- -- 82
2020-09-20 09:00:00 11.9 5 Este 8 Este 0 -- -- 96
2020-09-20 08:00:00 10.7 3 Sudeste 7 Nordeste 0 -- -- 96
2020-09-20 07:00:00 10.9 3 Sur 6 Nordeste 0 -- -- 94
2020-09-20 06:00:00 11.3 4 Nordeste 7 Nordeste 0 -- -- 94
2020-09-20 05:00:00 11.6 0 Calma 8 Este 0 -- -- 93
2020-09-20 04:00:00 12.4 7 Este 10 Este 0 -- -- 93
2020-09-20 03:00:00 12.5 3 Nordeste 9 Nordeste 0 -- -- 91
2020-09-20 02:00:00 13.1 5 Este 9 Nordeste 0 -- -- 92
2020-09-20 01:00:00 13.7 4 Nordeste 8 Nordeste 0 -- -- 90
2020-09-20 00:00:00 14.5 5 Nordeste 6 Nordeste 0 -- -- 87
2020-09-19 23:00:00 15.9 2 Sur 12 Sur 0 -- -- 82
2020-09-19 22:00:00 16.9 8 Sur 14 Sudoeste 0 -- -- 77
2020-09-19 21:00:00 18.4 11 Sudoeste 18 Oeste 0 -- -- 70
2020-09-19 20:00:00 19.9 8 Sur 14 Sudoeste 0 -- -- 60
2020-09-19 19:00:00 21.1 8 Sudoeste 26 Sudoeste 0 -- -- 57
2020-09-19 18:00:00 22.6 16 Sudoeste 27 Sudoeste 0 -- -- 52
2020-09-19 17:00:00 21.9 12 Sudoeste 20 Oeste 0 -- -- 54
2020-09-19 16:00:00 21.8 14 Oeste 33 Oeste 0 -- -- 56
2020-09-19 15:00:00 22.3 11 Oeste 31 Sudoeste 0 -- -- 61
2020-09-19 14:00:00 21.9 3 Sudoeste 9 Sudoeste 0 -- -- 60
2020-09-19 13:00:00 20.7 4 Oeste 12 Sudoeste 0 -- -- 68
2020-09-19 12:00:00 19.9 4 Noroeste 10 Nordeste 0 -- -- 71
2020-09-19 11:00:00 17.5 3 Nordeste 10 Nordeste 0 -- -- 85
2020-09-19 10:00:00 16.2 6 Nordeste 18 Nordeste 0 -- -- 90
2020-09-19 09:00:00 15.1 11 Nordeste 19 Nordeste 4.2 -- -- 95
2020-09-19 08:00:00 16 5 Nordeste 11 Nordeste 5.8 -- -- 95
2020-09-19 07:00:00 16.4 3 Norte 14 Nordeste 0.6 -- -- 95
2020-09-19 06:00:00 16.4 6 Nordeste 12 Norte 0.6 -- -- 94
2020-09-19 05:00:00 16.6 3 Sudeste 5 Nordeste 0 -- -- 94
2020-09-19 04:00:00 16.4 3 Sudeste 6 Sur 0 -- -- 93
2020-09-19 03:00:00 17.2 3 Norte 8 Sudoeste 0 -- -- 91
2020-09-19 02:00:00 17.5 5 Norte 17 Este 0 -- -- 89
2020-09-19 01:00:00 17.6 8 Nordeste 18 Norte 0 -- -- 89
2020-09-19 00:00:00 17.3 10 Nordeste 22 Este 0 -- -- 91
2020-09-18 23:00:00 17.7 13 Nordeste 25 Nordeste 4.6 -- -- 89
2020-09-18 22:00:00 19.6 11 Nordeste 22 Nordeste 0 -- -- 74
2020-09-18 21:00:00 20 9 Este 26 Este 0 -- -- 74
2020-09-18 20:00:00 20.5 8 Este 22 Este 0 -- -- 71
2020-09-18 19:00:00 21.2 14 Este 28 Nordeste 0 -- -- 67
2020-09-18 18:00:00 22.1 16 Este 33 Este 0 -- -- 64
2020-09-18 17:00:00 22.1 12 Nordeste 31 Este 0 -- -- 65
2020-09-18 16:00:00 22.3 15 Este 31 Este 0 -- -- 66
2020-09-18 15:00:00 21.5 21 Nordeste 37 Nordeste 0 -- -- 70
2020-09-18 14:00:00 20.6 18 Este 31 Este 0.8 -- -- 77
2020-09-18 13:00:00 19.5 7 Este 20 Este 0.2 -- -- 74
2020-09-18 12:00:00 21.1 6 Este 26 Este 0 -- -- 58
2020-09-18 11:00:00 21.6 10 Este 16 Este 0 -- -- 52
2020-09-18 10:00:00 19.8 7 Norte 12 Norte 0 -- -- 63
2020-09-18 09:00:00 18.4 8 Nordeste 14 Este 0.2 -- -- 72
2020-09-18 08:00:00 20.7 4 Este 18 Nordeste 0 -- -- 47
2020-09-18 07:00:00 19.5 6 Norte 15 Nordeste 0 -- -- 51
2020-09-18 06:00:00 19.7 8 Nordeste 19 Este 0 -- -- 50
2020-09-18 05:00:00 20.2 10 Este 17 Este 0 -- -- 48
2020-09-18 04:00:00 19 7 Nordeste 12 Nordeste 0 -- -- 55
2020-09-18 03:00:00 19.7 3 Noroeste 14 Este 0 -- -- 52
2020-09-18 02:00:00 21.5 9 Este 17 Este 0 -- -- 46
2020-09-18 01:00:00 22.3 6 Sudeste 12 Sur 0 -- -- 44
2020-09-18 00:00:00 23.4 5 Este 13 Este 0 -- -- 38
2020-09-17 23:00:00 23.3 6 Este 12 Nordeste 0 -- -- 45
2020-09-17 22:00:00 23.9 5 Nordeste 14 Este 0 -- -- 43
2020-09-17 21:00:00 24.1 6 Nordeste 12 Nordeste 0 -- -- 38
2020-09-17 20:00:00 25.7 4 Sudeste 11 Sudeste 0 -- -- 34
2020-09-17 19:00:00 27.1 6 Este 13 Sudeste 0 -- -- 33
2020-09-17 18:00:00 27.4 6 Sudeste 15 Sudeste 0 -- -- 32
2020-09-17 17:00:00 27.4 5 Este 17 Este 0 -- -- 32
2020-09-17 16:00:00 27.9 7 Sudeste 23 Este 0 -- -- 33
2020-09-17 15:00:00 27.4 9 Sudeste 23 Sudeste 0 -- -- 36
2020-09-17 14:00:00 28.3 10 Sudeste 24 Sudeste 0 -- -- 34
2020-09-17 13:00:00 28.3 7 Este 23 Nordeste 0 -- -- 35
2020-09-17 12:00:00 27.9 12 Nordeste 22 Nordeste 0 -- -- 38
2020-09-17 11:00:00 24.1 8 Este 18 Este 0 -- -- 48
2020-09-17 10:00:00 21.8 7 Nordeste 15 Este 0 -- -- 55
2020-09-17 09:00:00 17.9 6 Nordeste 12 Nordeste 0 -- -- 69
2020-09-17 08:00:00 16 4 Nordeste 8 Nordeste 0 -- -- 76
2020-09-17 07:00:00 16.7 6 Nordeste 10 Nordeste 0 -- -- 75
2020-09-17 06:00:00 16.6 3 Nordeste 8 Nordeste 0 -- -- 76
2020-09-17 05:00:00 17 5 Este 10 Este 0 -- -- 75
2020-09-17 04:00:00 17.6 7 Nordeste 12 Nordeste 0 -- -- 70
2020-09-17 03:00:00 18.2 6 Nordeste 15 Nordeste 0 -- -- 69
2020-09-17 02:00:00 18.6 7 Nordeste 14 Este 0 -- -- 65
2020-09-17 01:00:00 19.1 5 Este 12 Nordeste 0 -- -- 61
2020-09-17 00:00:00 19.9 4 Nordeste 9 Nordeste 0 -- -- 60
2020-09-16 23:00:00 21 4 Nordeste 13 Nordeste 0 -- -- 53
2020-09-16 22:00:00 21.7 4 Norte 10 Este 0 -- -- 48
2020-09-16 21:00:00 23.4 4 Sudeste 10 Sudoeste 0 -- -- 42
2020-09-16 20:00:00 27 6 Sudoeste 15 Sudoeste 0 -- -- 35
2020-09-16 19:00:00 29.2 12 Sudoeste 25 Sudoeste 0 -- -- 29
2020-09-16 18:00:00 30.2 16 Sudoeste 28 Sudoeste 0 -- -- 27
2020-09-16 17:00:00 30.8 18 Oeste 32 Sudoeste 0 -- -- 27
2020-09-16 16:00:00 31.2 16 Oeste 27 Oeste 0 -- -- 27
2020-09-16 15:00:00 30.7 14 Sudoeste 24 Sudoeste 0 -- -- 27
2020-09-16 14:00:00 29.8 9 Sudoeste 22 Sudoeste 0 -- -- 29
2020-09-16 13:00:00 27.9 7 Oeste 15 Oeste 0 -- -- 38
2020-09-16 12:00:00 25.8 8 Sudoeste 13 Oeste 0 -- -- 44
2020-09-16 11:00:00 22.9 8 Oeste 11 Oeste 0 -- -- 50
2020-09-16 10:00:00 19.8 3 Oeste 5 Oeste 0 -- -- 61
2020-09-16 09:00:00 15.7 3 Este 5 Nordeste 0 -- -- 74
2020-09-16 08:00:00 14.5 3 Nordeste 9 Este 0 -- -- 76
2020-09-16 07:00:00 14.1 5 Este 8 Nordeste 0 -- -- 79
2020-09-16 06:00:00 14.3 2 Este 5 Nordeste 0 -- -- 76
2020-09-16 05:00:00 14.5 0 Calma 5 Nordeste 0 -- -- 75
2020-09-16 04:00:00 15.7 0 Calma 8 Sudeste 0 -- -- 69
2020-09-16 03:00:00 15.8 2 Sur 6 Sur 0 -- -- 69
2020-09-16 02:00:00 17.1 2 Nordeste 10 Este 0 -- -- 64
2020-09-16 01:00:00 18.2 4 Nordeste 14 Este 0 -- -- 60
2020-09-16 00:00:00 18.9 3 Este 13 Nordeste 0 -- -- 57
2020-09-15 23:00:00 19.4 2 Nordeste 12 Este 0 -- -- 55
2020-09-15 22:00:00 21.2 3 Este 9 Nordeste 0 -- -- 49
2020-09-15 21:00:00 22.3 0 Calma 10 Sur 0 -- -- 46
2020-09-15 20:00:00 26.2 8 Sudoeste 21 Sudoeste 0 -- -- 37
2020-09-15 19:00:00 28.3 12 Sudoeste 25 Sudoeste 0 -- -- 32
2020-09-15 18:00:00 29.5 16 Oeste 26 Oeste 0 -- -- 31
2020-09-15 17:00:00 29.9 11 Sudoeste 22 Sudoeste 0 -- -- 30
2020-09-15 16:00:00 29.7 6 Sudoeste 19 Oeste 0 -- -- 30
2020-09-15 15:00:00 28.9 9 Oeste 19 Noroeste 0 -- -- 31
2020-09-15 14:00:00 27 4 Noroeste 12 Oeste 0 -- -- 34
2020-09-15 13:00:00 23.7 6 Sudoeste 11 Sudoeste 0 -- -- 43
2020-09-15 12:00:00 20.3 6 Sudoeste 12 Sudoeste 0 -- -- 52
2020-09-15 11:00:00 19.5 3 Oeste 7 Nordeste 0 -- -- 55
2020-09-15 10:00:00 17.7 2 Nordeste 7 Oeste 0 -- -- 63
2020-09-15 09:00:00 16.6 0 Calma 8 Este 0 -- -- 62
2020-09-15 08:00:00 15.4 8 Este 12 Nordeste 0 -- -- 65
2020-09-15 07:00:00 14.8 2 Este 13 Nordeste 0 -- -- 66
2020-09-15 06:00:00 15.4 7 Sur 12 Sur 0 -- -- 64
2020-09-15 05:00:00 16.3 3 Oeste 18 Nordeste 0 -- -- 62
2020-09-15 04:00:00 16.4 10 Nordeste 16 Nordeste 0 -- -- 62
2020-09-15 03:00:00 16.4 6 Este 11 Este 0 -- -- 62
2020-09-15 02:00:00 17 5 Este 12 Nordeste 0 -- -- 60
2020-09-15 01:00:00 18.2 5 Este 13 Este 0 -- -- 57
2020-09-15 00:00:00 18.8 7 Este 12 Nordeste 0 -- -- 55
2020-09-14 23:00:00 20.6 6 Nordeste 14 Nordeste 0 -- -- 50
2020-09-14 22:00:00 23.8 5 Sudeste 16 Este 0 -- -- 42
2020-09-14 21:00:00 24.5 5 Norte 27 Sur 0 -- -- 41
2020-09-14 20:00:00 26.8 9 Sur 26 Sudeste 0 -- -- 34
2020-09-14 19:00:00 29.2 11 Sudeste 24 Sudeste 0 -- -- 26
2020-09-14 18:00:00 30.3 10 Sudeste 22 Sudeste 0 -- -- 25
2020-09-14 17:00:00 31.2 9 Este 21 Nordeste 0 -- -- 25
2020-09-14 16:00:00 30.9 9 Sudeste 24 Sudeste 0 -- -- 25
2020-09-14 15:00:00 30.7 8 Nordeste 28 Sudeste 0 -- -- 26
2020-09-14 14:00:00 30.1 10 Sur 20 Sudoeste 0 -- -- 27
2020-09-14 13:00:00 29.2 9 Sudoeste 17 Nordeste 0 -- -- 30
2020-09-14 12:00:00 28.3 8 Nordeste 19 Nordeste 0 -- -- 33
2020-09-14 11:00:00 24.1 4 Oeste 7 Norte 0 -- -- 43
2020-09-14 10:00:00 20.7 3 Norte 6 Nordeste 0 -- -- 50
2020-09-14 09:00:00 16 3 Este 8 Este 0 -- -- 65
2020-09-14 08:00:00 13.4 5 Este 8 Este 0 -- -- 72
2020-09-14 07:00:00 13.4 0 Calma 8 Este 0 -- -- 71
2020-09-14 06:00:00 14 3 Este 8 Nordeste 0 -- -- 69
2020-09-14 05:00:00 14.6 4 Sudeste 8 Este 0 -- -- 66
2020-09-14 04:00:00 15.3 3 Este 10 Nordeste 0 -- -- 63
2020-09-14 03:00:00 15.7 5 Nordeste 11 Norte 0 -- -- 61
2020-09-14 02:00:00 16.8 6 Nordeste 12 Nordeste 0 -- -- 57
2020-09-14 01:00:00 17.1 4 Este 9 Nordeste 0 -- -- 55
2020-09-14 00:00:00 18.5 7 Este 13 Nordeste 0 -- -- 52
2020-09-13 23:00:00 18.9 6 Este 10 Sudeste 0 -- -- 50
2020-09-13 22:00:00 19.9 3 Nordeste 10 Norte 0 -- -- 41
2020-09-13 21:00:00 22.3 5 Sudeste 10 Sur 0 -- -- 39
2020-09-13 20:00:00 27.8 3 Sur 19 Sudoeste 0 -- -- 31
2020-09-13 19:00:00 30.3 7 Sudoeste 20 Sudoeste 0 -- -- 28
2020-09-13 18:00:00 30.9 6 Sudoeste 23 Sur 0 -- -- 29
2020-09-13 17:00:00 31.1 13 Oeste 32 Sudoeste 0 -- -- 28
2020-09-13 16:00:00 29.8 7 Oeste 17 Oeste 0 -- -- 31
2020-09-13 15:00:00 28.9 7 Noroeste 14 Sudoeste 0 -- -- 31
2020-09-13 14:00:00 28.8 9 Sudoeste 18 Sudoeste 0 -- -- 29
2020-09-13 13:00:00 28.1 6 Sudoeste 13 Oeste 0 -- -- 35
2020-09-13 12:00:00 26.5 3 Oeste 10 Oeste 0 -- -- 39
2020-09-13 11:00:00 23.2 5 Noroeste 11 Oeste 0 -- -- 47
2020-09-13 10:00:00 19.4 6 Oeste 8 Oeste 0 -- -- 56
2020-09-13 09:00:00 15.3 0 Calma 6 Este 0 -- -- 71
2020-09-13 08:00:00 13.1 3 Sudeste 10 Este 0 -- -- 78
2020-09-13 07:00:00 13.6 5 Este 11 Este 0 -- -- 76
2020-09-13 06:00:00 14.2 2 Nordeste 10 Nordeste 0 -- -- 72
2020-09-13 05:00:00 14.7 4 Sudeste 9 Este 0 -- -- 71
2020-09-13 04:00:00 15 4 Nordeste 11 Nordeste 0 -- -- 68
2020-09-13 03:00:00 15.3 3 Sudeste 11 Nordeste 0 -- -- 65
2020-09-13 02:00:00 16.9 5 Nordeste 11 Nordeste 0 -- -- 59
2020-09-13 01:00:00 17.7 6 Este 11 Este 0 -- -- 55
2020-09-13 00:00:00 17.7 3 Sudeste 9 Nordeste 0 -- -- 56
2020-09-12 23:00:00 19 4 Este 14 Nordeste 0 -- -- 51
2020-09-12 22:00:00 21.1 6 Este 10 Este 0 -- -- 45
2020-09-12 21:00:00 23.6 3 Nordeste 12 Sur 0 -- -- 40
2020-09-12 20:00:00 26.7 7 Sudoeste 21 Oeste 0 -- -- 32
2020-09-12 19:00:00 29.4 10 Sudoeste 21 Oeste 0 -- -- 23
2020-09-12 18:00:00 30 13 Oeste 27 Oeste 0 -- -- 24
2020-09-12 17:00:00 29.8 14 Sudoeste 26 Sudoeste 0 -- -- 26
2020-09-12 16:00:00 30 14 Sudoeste 29 Sudoeste 0 -- -- 30
2020-09-12 15:00:00 29.6 15 Oeste 27 Sudoeste 0 -- -- 31
2020-09-12 14:00:00 28.8 12 Oeste 23 Oeste 0 -- -- 31
2020-09-12 13:00:00 27.7 9 Oeste 18 Sudoeste 0 -- -- 36
2020-09-12 12:00:00 25.6 7 Noroeste 12 Noroeste 0 -- -- 43
2020-09-12 11:00:00 22.6 5 Oeste 10 Oeste 0 -- -- 51
2020-09-12 10:00:00 20 4 Noroeste 10 Nordeste 0 -- -- 59
2020-09-12 09:00:00 16.4 5 Nordeste 9 Nordeste 0 -- -- 69
2020-09-12 08:00:00 14.1 4 Nordeste 9 Este 0 -- -- 76
2020-09-12 07:00:00 13.7 4 Este 12 Nordeste 0 -- -- 79
2020-09-12 06:00:00 14.8 7 Nordeste 11 Nordeste 0 -- -- 74
2020-09-12 05:00:00 14.3 4 Nordeste 9 Nordeste 0 -- -- 77
2020-09-12 04:00:00 15 6 Este 12 Nordeste 0 -- -- 73
2020-09-12 03:00:00 16.1 6 Este 10 Nordeste 0 -- -- 68
2020-09-12 02:00:00 16.7 3 Este 6 Nordeste 0 -- -- 66
2020-09-12 01:00:00 18.2 2 Sudoeste 10 Este 0 -- -- 60
2020-09-12 00:00:00 19.6 3 Este 11 Nordeste 0 -- -- 54
2020-09-11 23:00:00 20.2 6 Este 11 Nordeste 0 -- -- 51
2020-09-11 22:00:00 21.5 6 Este 9 Nordeste 0 -- -- 47
2020-09-11 21:00:00 23.7 3 Nordeste 12 Sur 0 -- -- 42
2020-09-11 20:00:00 26.1 5 Sudoeste 21 Sudoeste 0 -- -- 36
2020-09-11 19:00:00 27.7 13 Sudoeste 22 Oeste 0 -- -- 33
2020-09-11 18:00:00 28.5 17 Sudoeste 25 Sudoeste 0 -- -- 32
2020-09-11 17:00:00 28.6 15 Sudoeste 28 Sudoeste 0 -- -- 33
2020-09-11 16:00:00 28.8 16 Sudoeste 30 Oeste 0 -- -- 31
2020-09-11 15:00:00 28.9 4 Noroeste 17 Oeste 0 -- -- 27
2020-09-11 14:00:00 28.1 7 Norte 20 Oeste 0 -- -- 27
2020-09-11 13:00:00 26.9 10 Oeste 19 Oeste 0 -- -- 28
2020-09-11 12:00:00 25.3 12 Oeste 19 Sudoeste 0 -- -- 34
2020-09-11 11:00:00 22 3 Noroeste 8 Norte 0 -- -- 45
2020-09-11 10:00:00 18 3 Oeste 5 Oeste 0 -- -- 56
2020-09-11 09:00:00 14.1 0 Calma 6 Este 0 -- -- 71
2020-09-11 08:00:00 10.6 3 Nordeste 7 Este 0 -- -- 82
2020-09-11 07:00:00 11.6 6 Sudeste 9 Sudeste 0 -- -- 78
2020-09-11 06:00:00 12.9 3 Este 8 Nordeste 0 -- -- 72
2020-09-11 05:00:00 13 3 Este 8 Nordeste 0 -- -- 72
2020-09-11 04:00:00 13.3 2 Este 9 Nordeste 0 -- -- 71
2020-09-11 03:00:00 14.4 3 Este 10 Este 0 -- -- 67
2020-09-11 02:00:00 15.2 3 Nordeste 12 Este 0 -- -- 66
2020-09-11 01:00:00 15.4 3 Nordeste 6 Nordeste 0 -- -- 62
2020-09-11 00:00:00 16.7 6 Oeste 13 Oeste 0 -- -- 58
2020-09-10 23:00:00 19.7 5 Sudeste 14 Nordeste 0 -- -- 47
2020-09-10 22:00:00 21 6 Nordeste 18 Nordeste 0 -- -- 43
2020-09-10 21:00:00 22.9 8 Este 16 Norte 0 -- -- 39
2020-09-10 20:00:00 25.6 11 Norte 18 Norte 0 -- -- 34
2020-09-10 19:00:00 27.7 6 Oeste 15 Noroeste 0 -- -- 31
2020-09-10 18:00:00 27.5 11 Oeste 19 Oeste 0 -- -- 36
2020-09-10 17:00:00 26.4 13 Oeste 24 Oeste 0 -- -- 41
2020-09-10 16:00:00 26.4 14 Oeste 25 Sudoeste 0 -- -- 40
2020-09-10 15:00:00 25.8 12 Sudoeste 19 Sudoeste 0 -- -- 43
2020-09-10 14:00:00 26.6 6 Sudoeste 17 Sudoeste 0 -- -- 39
2020-09-10 13:00:00 24.4 6 Sudoeste 23 Sudoeste 0 -- -- 43
2020-09-10 12:00:00 22.1 8 Oeste 17 Oeste 0 -- -- 56
2020-09-10 11:00:00 19 5 Oeste 10 Oeste 0 -- -- 69
2020-09-10 10:00:00 17.1 3 Sudeste 7 Sudeste 0 -- -- 77
2020-09-10 09:00:00 14.6 3 Norte 7 Noroeste 0 -- -- 85
2020-09-10 08:00:00 12.6 3 Sudeste 7 Sudeste 0 -- -- 90
2020-09-10 07:00:00 13.1 2 Este 9 Noroeste 0 -- -- 90
2020-09-10 06:00:00 13 4 Este 7 Este 0 -- -- 90
2020-09-10 05:00:00 13.5 4 Nordeste 6 Este 0 -- -- 89
2020-09-10 04:00:00 13.8 2 Este 9 Nordeste 0 -- -- 88
2020-09-10 03:00:00 13.8 4 Este 9 Este 0 -- -- 89
2020-09-10 02:00:00 13.5 3 Nordeste 8 Sudeste 0 -- -- 89
2020-09-10 01:00:00 14 4 Sudeste 8 Nordeste 0 -- -- 86
2020-09-10 00:00:00 14.8 5 Nordeste 10 Este 0 -- -- 84
2020-09-09 23:00:00 16.3 4 Este 15 Este 0 -- -- 78
2020-09-09 22:00:00 17.2 12 Este 23 Nordeste 0 -- -- 78
2020-09-09 21:00:00 18 5 Nordeste 22 Este 0 -- -- 73
2020-09-09 20:00:00 19.5 5 Este 15 Sudeste 0 -- -- 67
2020-09-09 19:00:00 21.7 8 Este 17 Sudeste 0 -- -- 59
2020-09-09 18:00:00 23.4 3 Noroeste 13 Sudoeste 0 -- -- 46
2020-09-09 17:00:00 23.8 6 Sur 17 Oeste 0 -- -- 44
2020-09-09 16:00:00 23.3 10 Oeste 19 Oeste 0 -- -- 45
2020-09-09 15:00:00 24.1 11 Oeste 20 Sudoeste 0 -- -- 44
2020-09-09 14:00:00 22.6 3 Oeste 10 Oeste 0 -- -- 47
2020-09-09 13:00:00 22.9 4 Norte 12 Oeste 0 -- -- 49
2020-09-09 12:00:00 21.9 4 Sur 12 Sudoeste 0 -- -- 51
2020-09-09 11:00:00 19.5 4 Nordeste 8 Norte 0 -- -- 63
2020-09-09 10:00:00 17.3 3 Sur 6 Nordeste 0 -- -- 75
2020-09-09 09:00:00 15.4 2 Nordeste 6 Sur 0 -- -- 83
2020-09-09 08:00:00 14.8 2 Sudoeste 18 Nordeste 0 -- -- 84
2020-09-09 07:00:00 14.4 8 Nordeste 19 Nordeste 0 -- -- 84
2020-09-09 06:00:00 14 6 Nordeste 10 Este 0 -- -- 82
2020-09-09 05:00:00 13.9 4 Sudeste 13 Nordeste 0 -- -- 86
2020-09-09 04:00:00 13.2 7 Nordeste 12 Nordeste 0 -- -- 84
2020-09-09 03:00:00 13.8 4 Nordeste 8 Este 0 -- -- 86
2020-09-09 02:00:00 14.1 5 Nordeste 12 Nordeste 0 -- -- 86
2020-09-09 01:00:00 14.8 8 Nordeste 15 Este 0 -- -- 87
2020-09-09 00:00:00 16 4 Nordeste 14 Este 0 -- -- 84
2020-09-08 23:00:00 17.2 6 Este 21 Nordeste 0.4 -- -- 79
2020-09-08 22:00:00 19.7 10 Nordeste 21 Este 0 -- -- 56
2020-09-08 21:00:00 20.7 8 Sudeste 19 Sudeste 0 -- -- 53
2020-09-08 20:00:00 22.7 4 Oeste 10 Sudoeste 0 -- -- 40
2020-09-08 19:00:00 23.6 8 Sur 24 Sur 0 -- -- 37
2020-09-08 18:00:00 24.6 11 Sur 24 Sudoeste 0 -- -- 33
2020-09-08 17:00:00 25.4 13 Sur 30 Oeste 0 -- -- 29
2020-09-08 16:00:00 26.9 14 Sudoeste 23 Sudoeste 0 -- -- 25
2020-09-08 15:00:00 26 12 Sudoeste 25 Sudoeste 0 -- -- 25
2020-09-08 14:00:00 25.2 5 Sudoeste 17 Oeste 0 -- -- 26
2020-09-08 13:00:00 23.7 10 Oeste 18 Oeste 0 -- -- 27
2020-09-08 12:00:00 22 6 Sudoeste 14 Sudoeste 0 -- -- 28
2020-09-08 11:00:00 19 3 Noroeste 10 Oeste 0 -- -- 35
2020-09-08 10:00:00 15.6 4 Noroeste 8 Oeste 0 -- -- 43
2020-09-08 09:00:00 11.1 2 Nordeste 6 Norte 0 -- -- 58
2020-09-08 08:00:00 8.1 0 Calma 9 Sudeste 0 -- -- 66
2020-09-08 07:00:00 8.1 4 Nordeste 10 Nordeste 0 -- -- 65
2020-09-08 06:00:00 8.6 4 Nordeste 8 Nordeste 0 -- -- 62
2020-09-08 05:00:00 9.5 0 Calma 8 Sudeste 0 -- -- 58
2020-09-08 04:00:00 10.2 4 Nordeste 7 Este 0 -- -- 55
2020-09-08 03:00:00 12.3 5 Este 11 Este 0 -- -- 48
2020-09-08 02:00:00 14.6 5 Este 15 Sudeste 0 -- -- 41
2020-09-08 01:00:00 15.8 8 Este 18 Este 0 -- -- 38
2020-09-08 00:00:00 16.2 11 Este 21 Sudeste 0 -- -- 37
2020-09-07 23:00:00 16.5 10 Nordeste 27 Nordeste 0 -- -- 36
2020-09-07 22:00:00 17.5 15 Nordeste 32 Norte 0 -- -- 33
2020-09-07 21:00:00 19.2 19 Nordeste 31 Nordeste 0 -- -- 30
2020-09-07 20:00:00 21.8 16 Norte 30 Norte 0 -- -- 27
2020-09-07 19:00:00 24.3 12 Sudoeste 27 Sudoeste 0 -- -- 29
2020-09-07 18:00:00 24.9 13 Sudoeste 34 Sudoeste 0 -- -- 29
2020-09-07 17:00:00 25.1 12 Sudoeste 28 Sudoeste 0 -- -- 30
2020-09-07 16:00:00 24.5 13 Sudoeste 28 Sudoeste 0 -- -- 32
2020-09-07 15:00:00 24.1 15 Sudoeste 24 Oeste 0 -- -- 32
2020-09-07 14:00:00 22.9 14 Sudoeste 25 Sudoeste 0 -- -- 34
2020-09-07 13:00:00 22.4 10 Sudoeste 23 Sudoeste 0 -- -- 36
2020-09-07 12:00:00 20.9 8 Oeste 24 Oeste 0 -- -- 39
2020-09-07 11:00:00 18.4 8 Sudoeste 14 Oeste 0 -- -- 53
2020-09-07 10:00:00 15.5 6 Sudoeste 10 Oeste 0 -- -- 67
2020-09-07 09:00:00 12.8 3 Nordeste 6 Norte 0 -- -- 77
2020-09-07 08:00:00 10.4 2 Nordeste 6 Este 0 -- -- 84
2020-09-07 07:00:00 11.1 3 Sudeste 5 Este 0 -- -- 81
2020-09-07 06:00:00 12 2 Norte 6 Sur 0 -- -- 79
2020-09-07 05:00:00 12.1 3 Sur 7 Sur 0 -- -- 77
2020-09-07 04:00:00 13.4 6 Sur 12 Sudoeste 0 -- -- 71
2020-09-07 03:00:00 14.1 8 Sudoeste 11 Sudoeste 0 -- -- 68
2020-09-07 02:00:00 14.9 5 Sudeste 9 Sur 0 -- -- 65
2020-09-07 01:00:00 16.8 6 Sudeste 9 Este 0 -- -- 58
2020-09-07 00:00:00 17.9 8 Nordeste 18 Nordeste 0 -- -- 54
2020-09-06 23:00:00 17.6 3 Este 11 Sudoeste 0 -- -- 56
2020-09-06 22:00:00 18.7 5 Oeste 18 Sur 0 -- -- 53
2020-09-06 21:00:00 21.9 11 Sur 16 Sur 0 -- -- 43
2020-09-06 20:00:00 24.9 5 Sur 15 Sudeste 0 -- -- 40
2020-09-06 19:00:00 25.1 7 Sudoeste 26 Sudoeste 0 -- -- 41
2020-09-06 18:00:00 26.7 15 Sudoeste 32 Sudoeste 0 -- -- 38
2020-09-06 17:00:00 26.7 18 Sudoeste 36 Sudoeste 0 -- -- 39
2020-09-06 16:00:00 26.7 18 Sudoeste 31 Sudoeste 0 -- -- 43
2020-09-06 15:00:00 25.7 16 Sudoeste 30 Sudoeste 0 -- -- 46
2020-09-06 14:00:00 24.7 18 Sudoeste 32 Oeste 0 -- -- 54
2020-09-06 13:00:00 23.6 20 Oeste 30 Oeste 0 -- -- 57
2020-09-06 12:00:00 23.4 19 Oeste 27 Oeste 0 -- -- 60
2020-09-06 11:00:00 21.3 9 Sudoeste 16 Oeste 0 -- -- 69
2020-09-06 10:00:00 19 5 Sudoeste 10 Oeste 0 -- -- 76
2020-09-06 09:00:00 16.8 3 Nordeste 6 Este 0 -- -- 81
2020-09-06 08:00:00 14.7 3 Nordeste 6 Nordeste 0 -- -- 89
2020-09-06 07:00:00 15 4 Nordeste 7 Norte 0 -- -- 87
2020-09-06 06:00:00 15.5 4 Nordeste 6 Nordeste 0 -- -- 85
2020-09-06 05:00:00 16.3 4 Este 9 Nordeste 0 -- -- 81
2020-09-06 04:00:00 17.3 4 Este 9 Este 0 -- -- 75
2020-09-06 03:00:00 17.7 4 Nordeste 9 Este 0 -- -- 73
2020-09-06 02:00:00 18.5 4 Este 10 Nordeste 0 -- -- 71
2020-09-06 01:00:00 19.4 4 Nordeste 9 Norte 0 -- -- 71
2020-09-06 00:00:00 20.3 3 Sudeste 7 Sur 0 -- -- 61
2020-09-05 23:00:00 21.3 2 Este 5 Noroeste 0 -- -- 55
2020-09-05 22:00:00 22.7 2 Noroeste 6 Norte 0 -- -- 50
2020-09-05 21:00:00 25.6 3 Sudeste 13 Sudeste 0 -- -- 43
2020-09-05 20:00:00 27.9 8 Sur 20 Sur 0 -- -- 36
2020-09-05 19:00:00 29.3 10 Sur 27 Oeste 0 -- -- 33
2020-09-05 18:00:00 29.7 16 Sudoeste 28 Oeste 0 -- -- 34
2020-09-05 17:00:00 30.6 14 Sudoeste 26 Sudoeste 0 -- -- 32
2020-09-05 16:00:00 29.9 15 Oeste 28 Oeste 0 -- -- 33
2020-09-05 15:00:00 29.2 14 Oeste 24 Oeste 0 -- -- 34
2020-09-05 14:00:00 28.2 14 Oeste 28 Sudoeste 0 -- -- 36
2020-09-05 13:00:00 27.2 14 Oeste 22 Sudoeste 0 -- -- 37
2020-09-05 12:00:00 25.3 11 Oeste 18 Oeste 0 -- -- 43
2020-09-05 11:00:00 22.6 5 Sudoeste 10 Sudoeste 0 -- -- 51
2020-09-05 10:00:00 19.2 5 Oeste 9 Oeste 0 -- -- 64
2020-09-05 09:00:00 16.1 2 Nordeste 8 Este 0 -- -- 73
2020-09-05 08:00:00 13.1 2 Este 6 Este 0 -- -- 85
2020-09-05 07:00:00 13.6 5 Este 9 Este 0 -- -- 84
2020-09-05 06:00:00 13.8 2 Sudeste 10 Nordeste 0 -- -- 80
2020-09-05 05:00:00 14.7 4 Este 8 Nordeste 0 -- -- 78
2020-09-05 04:00:00 15 5 Este 9 Sudeste 0 -- -- 77
2020-09-05 03:00:00 16.3 3 Nordeste 9 Este 0 -- -- 69
2020-09-05 02:00:00 17.2 6 Sudeste 10 Sudeste 0 -- -- 65
2020-09-05 01:00:00 17.9 5 Este 11 Este 0 -- -- 62
2020-09-05 00:00:00 17.9 5 Nordeste 10 Este 0 -- -- 61
2020-09-04 23:00:00 19.4 3 Nordeste 10 Este 0 -- -- 55
2020-09-04 22:00:00 20.9 3 Sudeste 7 Sur 0 -- -- 50
2020-09-04 21:00:00 23.6 4 Sudoeste 11 Sudoeste 0 -- -- 43
2020-09-04 20:00:00 27.7 6 Sudoeste 25 Sudoeste 0 -- -- 35
2020-09-04 19:00:00 29.4 12 Oeste 22 Oeste 0 -- -- 32
2020-09-04 18:00:00 30.2 14 Oeste 30 Oeste 0 -- -- 32
2020-09-04 17:00:00 30.5 14 Oeste 23 Sudoeste 0 -- -- 33
2020-09-04 16:00:00 30.3 10 Oeste 21 Oeste 0 -- -- 33
2020-09-04 15:00:00 29.5 8 Oeste 19 Oeste 0 -- -- 32
2020-09-04 14:00:00 28.7 5 Noroeste 17 Sudoeste 0 -- -- 32
2020-09-04 13:00:00 27.8 9 Oeste 27 Oeste 0 -- -- 34
2020-09-04 12:00:00 26 5 Noroeste 12 Oeste 0 -- -- 37
2020-09-04 11:00:00 23 2 Noroeste 7 Norte 0 -- -- 44
2020-09-04 10:00:00 19.6 4 Nordeste 9 Nordeste 0 -- -- 53
2020-09-04 09:00:00 15.6 5 Nordeste 10 Nordeste 0 -- -- 66
2020-09-04 08:00:00 12.5 5 Este 9 Nordeste 0 -- -- 75
2020-09-04 07:00:00 12.4 3 Este 8 Este 0 -- -- 75
2020-09-04 06:00:00 12.5 4 Este 8 Nordeste 0 -- -- 76
2020-09-04 05:00:00 13 3 Nordeste 9 Nordeste 0 -- -- 70
2020-09-04 04:00:00 14 4 Nordeste 10 Este 0 -- -- 66
2020-09-04 03:00:00 14.4 5 Este 11 Nordeste 0 -- -- 64
2020-09-04 02:00:00 15.9 5 Este 14 Sudeste 0 -- -- 58
2020-09-04 01:00:00 16 6 Sudeste 10 Sudeste 0 -- -- 56
2020-09-04 00:00:00 16.8 3 Este 9 Nordeste 0 -- -- 53
2020-09-03 23:00:00 19 4 Este 12 Nordeste 0 -- -- 49
2020-09-03 22:00:00 20 3 Nordeste 9 Nordeste 0 -- -- 47
2020-09-03 21:00:00 22.7 5 Sudoeste 15 Sur 0 -- -- 39
2020-09-03 20:00:00 26.2 11 Sudoeste 19 Sudoeste 0 -- -- 31
2020-09-03 19:00:00 28 13 Sudoeste 21 Oeste 0 -- -- 30
2020-09-03 18:00:00 28.6 13 Oeste 23 Oeste 0 -- -- 28
2020-09-03 17:00:00 28.5 10 Sudoeste 22 Sudoeste 0 -- -- 27
2020-09-03 16:00:00 27.8 14 Sudoeste 26 Oeste 0 -- -- 29
2020-09-03 15:00:00 27.4 14 Oeste 29 Oeste 0 -- -- 34
2020-09-03 14:00:00 26.8 13 Oeste 23 Oeste 0 -- -- 33
2020-09-03 13:00:00 25.1 10 Oeste 19 Oeste 0 -- -- 38
2020-09-03 12:00:00 23.3 9 Oeste 15 Oeste 0 -- -- 43
2020-09-03 11:00:00 20.8 6 Oeste 9 Oeste 0 -- -- 52
2020-09-03 10:00:00 17.6 2 Noroeste 8 Norte 0 -- -- 62
2020-09-03 09:00:00 13.7 3 Este 5 Nordeste 0 -- -- 75
2020-09-03 08:00:00 10.9 4 Nordeste 8 Nordeste 0 -- -- 84
2020-09-03 07:00:00 10.9 6 Nordeste 9 Nordeste 0 -- -- 84
2020-09-03 06:00:00 11.4 0 Calma 9 Este 0 -- -- 81
2020-09-03 05:00:00 11.6 4 Este 8 Este 0 -- -- 82
2020-09-03 04:00:00 12.9 2 Sudeste 9 Nordeste 0 -- -- 75
2020-09-03 03:00:00 13.8 5 Este 9 Este 0 -- -- 73
2020-09-03 02:00:00 14.2 5 Este 9 Este 0 -- -- 71
2020-09-03 01:00:00 14.4 3 Este 9 Este 0 -- -- 68
2020-09-03 00:00:00 15.5 7 Este 11 Nordeste 0 -- -- 64
2020-09-02 23:00:00 16.9 5 Este 9 Este 0 -- -- 60
2020-09-02 22:00:00 17.8 2 Sudeste 6 Sur 0 -- -- 56
2020-09-02 21:00:00 20.3 4 Sudoeste 10 Sudoeste 0 -- -- 49
2020-09-02 20:00:00 23.8 8 Sudoeste 20 Sudoeste 0 -- -- 40
2020-09-02 19:00:00 25.1 11 Sudoeste 23 Sudoeste 0 -- -- 36
2020-09-02 18:00:00 25.9 14 Oeste 23 Sudoeste 0 -- -- 35
2020-09-02 17:00:00 25.8 13 Oeste 27 Oeste 0 -- -- 35
2020-09-02 16:00:00 25.1 15 Oeste 28 Sudoeste 0 -- -- 36
2020-09-02 15:00:00 24.8 17 Oeste 28 Oeste 0 -- -- 37
2020-09-02 14:00:00 24.2 16 Oeste 27 Sudoeste 0 -- -- 42
2020-09-02 13:00:00 23.1 6 Sudeste 16 Oeste 0 -- -- 43
2020-09-02 12:00:00 21.7 8 Noroeste 17 Oeste 0 -- -- 50
2020-09-02 11:00:00 19.5 9 Oeste 15 Sudoeste 0 -- -- 53
2020-09-02 10:00:00 16.6 5 Oeste 11 Sudoeste 0 -- -- 57
2020-09-02 09:00:00 13.7 2 Este 8 Sudeste 0 -- -- 67
2020-09-02 08:00:00 10.6 3 Sudeste 12 Nordeste 0 -- -- 77
2020-09-02 07:00:00 10.6 5 Este 11 Este 0 -- -- 76
2020-09-02 06:00:00 10 5 Nordeste 9 Nordeste 0 -- -- 78
2020-09-02 05:00:00 10.7 4 Sudeste 9 Este 0 -- -- 73
2020-09-02 04:00:00 11.3 4 Este 9 Nordeste 0 -- -- 68
2020-09-02 03:00:00 11.7 4 Este 8 Este 0 -- -- 68
2020-09-02 02:00:00 13.2 5 Este 9 Este 0 -- -- 64
2020-09-02 01:00:00 13.4 2 Nordeste 9 Nordeste 0 -- -- 62
2020-09-02 00:00:00 13.9 3 Este 8 Este 0 -- -- 58
2020-09-01 23:00:00 15.8 2 Nordeste 10 Este 0 -- -- 55
2020-09-01 22:00:00 16.2 3 Nordeste 7 Nordeste 0 -- -- 50
2020-09-01 21:00:00 18.7 4 Sur 6 Sur 0 -- -- 44
2020-09-01 20:00:00 23.9 5 Oeste 15 Sudoeste 0 -- -- 32
2020-09-01 19:00:00 23.7 6 Sudoeste 14 Oeste 0 -- -- 31
2020-09-01 18:00:00 24.6 4 Sudeste 19 Oeste 0 -- -- 28
2020-09-01 17:00:00 23.9 8 Sudoeste 18 Sur 0 -- -- 29
2020-09-01 16:00:00 23 12 Sudoeste 22 Sudoeste 0 -- -- 30
2020-09-01 15:00:00 23.6 15 Oeste 22 Oeste 0 -- -- 27
2020-09-01 14:00:00 22.6 4 Noroeste 12 Noroeste 0 -- -- 28
2020-09-01 13:00:00 21.6 7 Oeste 15 Sudoeste 0 -- -- 34
2020-09-01 12:00:00 21.2 5 Oeste 12 Oeste 0 -- -- 36
2020-09-01 11:00:00 18.3 8 Oeste 13 Oeste 0 -- -- 45
2020-09-01 10:00:00 16.3 2 Este 6 Nordeste 0 -- -- 50
2020-09-01 09:00:00 12.7 3 Nordeste 7 Este 0 -- -- 63
2020-09-01 08:00:00 10.3 3 Sudeste 6 Este 0 -- -- 71
2020-09-01 07:00:00 10.6 3 Sudeste 5 Este 0 -- -- 68
2020-09-01 06:00:00 11.2 0 Calma 9 Sudeste 0 -- -- 65
2020-09-01 05:00:00 12 2 Sudeste 8 Nordeste 0 -- -- 64
2020-09-01 04:00:00 11.8 3 Este 9 Este 0 -- -- 63
2020-09-01 03:00:00 12.5 7 Nordeste 11 Nordeste 0 -- -- 61
2020-09-01 02:00:00 13 5 Este 13 Sudeste 0 -- -- 58
2020-09-01 01:00:00 13.7 4 Este 8 Nordeste 0 -- -- 53
2020-09-01 00:00:00 13.8 7 Nordeste 15 Nordeste 0 -- -- 53
2020-08-31 23:00:00 14.5 7 Este 12 Nordeste 0 -- -- 49
2020-08-31 22:00:00 14.8 4 Nordeste 6 Este 0 -- -- 46
2020-08-31 21:00:00 17.8 2 Sudoeste 15 Sudoeste 0 -- -- 37
2020-08-31 20:00:00 21.9 9 Sur 25 Sudoeste 0 -- -- 28
2020-08-31 19:00:00 23.4 13 Sudoeste 24 Oeste 0 -- -- 27
2020-08-31 18:00:00 24.2 12 Sudoeste 24 Oeste 0 -- -- 26
2020-08-31 17:00:00 24 8 Oeste 19 Sudoeste 0 -- -- 26
2020-08-31 16:00:00 22.9 7 Sudoeste 25 Oeste 0 -- -- 29
2020-08-31 15:00:00 22.4 15 Oeste 29 Oeste 0 -- -- 31
2020-08-31 14:00:00 21.8 16 Oeste 30 Oeste 0 -- -- 35
2020-08-31 13:00:00 20.6 14 Oeste 24 Oeste 0 -- -- 40
2020-08-31 12:00:00 19.1 11 Oeste 18 Oeste 0 -- -- 45
2020-08-31 11:00:00 16.7 5 Oeste 12 Oeste 0 -- -- 52
2020-08-31 10:00:00 13.6 3 Oeste 6 Noroeste 0 -- -- 67
2020-08-31 09:00:00 10.5 3 Nordeste 10 Nordeste 0 -- -- 82
2020-08-31 08:00:00 6.9 3 Este 8 Nordeste 0 -- -- 91
2020-08-31 07:00:00 7.5 5 Nordeste 9 Nordeste 0 -- -- 89
2020-08-31 06:00:00 7.9 4 Nordeste 9 Este 0 -- -- 87
2020-08-31 05:00:00 8.1 2 Este 8 Este 0 -- -- 88
2020-08-31 04:00:00 8.5 3 Norte 7 Nordeste 0 -- -- 87
2020-08-31 03:00:00 9.9 4 Nordeste 9 Este 0 -- -- 84
2020-08-31 02:00:00 10.4 3 Nordeste 12 Nordeste 0 -- -- 83
2020-08-31 01:00:00 10.7 3 Nordeste 11 Nordeste 0 -- -- 84
2020-08-31 00:00:00 11.3 5 Nordeste 9 Nordeste 0 -- -- 84
2020-08-30 23:00:00 13.2 4 Nordeste 15 Norte 0 -- -- 77
2020-08-30 22:00:00 13.9 8 Nordeste 13 Norte 0 -- -- 79
2020-08-30 21:00:00 15.5 8 Nordeste 12 Nordeste 0 -- -- 66
2020-08-30 20:00:00 16 7 Nordeste 30 Nordeste 0 -- -- 59
2020-08-30 19:00:00 18.6 18 Norte 35 Nordeste 0 -- -- 45
2020-08-30 18:00:00 23.4 16 Sudoeste 25 Sudoeste 0 -- -- 33
2020-08-30 17:00:00 23.1 12 Sudoeste 23 Sudoeste 0 -- -- 33
2020-08-30 16:00:00 21.9 10 Oeste 26 Oeste 0 -- -- 36
2020-08-30 15:00:00 22 12 Sudoeste 27 Sudoeste 0 -- -- 38
2020-08-30 14:00:00 21.3 11 Sur 30 Sudoeste 0 -- -- 43
2020-08-30 13:00:00 18.4 6 Sur 17 Sudoeste 0 -- -- 47
2020-08-30 12:00:00 19.1 8 Noroeste 17 Sudoeste 0 -- -- 47
2020-08-30 11:00:00 16.8 9 Oeste 13 Oeste 0 -- -- 56
2020-08-30 10:00:00 13.9 3 Oeste 7 Este 0 -- -- 67
2020-08-30 09:00:00 10.5 2 Nordeste 7 Sudeste 0 -- -- 82
2020-08-30 08:00:00 7.8 4 Sudeste 10 Sudeste 0 -- -- 92
2020-08-30 07:00:00 7.9 2 Nordeste 9 Este 0 -- -- 89
2020-08-30 06:00:00 8.3 3 Este 6 Este 0 -- -- 89
2020-08-30 05:00:00 9.4 4 Nordeste 10 Este 0 -- -- 87
2020-08-30 04:00:00 9.6 5 Este 9 Nordeste 0 -- -- 88
2020-08-30 03:00:00 9.6 5 Nordeste 9 Nordeste 0 -- -- 90
2020-08-30 02:00:00 10.5 2 Norte 10 Sudeste 0 -- -- 85
2020-08-30 01:00:00 10.9 3 Nordeste 6 Norte 0 -- -- 85
2020-08-30 00:00:00 11.3 3 Nordeste 9 Nordeste 0 -- -- 79
2020-08-29 23:00:00 12.1 6 Nordeste 10 Nordeste 0 -- -- 79
2020-08-29 22:00:00 13.9 0 Calma 14 Este 0 -- -- 74
2020-08-29 21:00:00 15.6 5 Nordeste 14 Este 0 -- -- 66
2020-08-29 20:00:00 16 9 Este 21 Nordeste 0 -- -- 66
2020-08-29 19:00:00 16.1 7 Este 31 Norte 0.4 -- -- 65
2020-08-29 18:00:00 21.8 10 Noroeste 25 Noroeste 0 -- -- 38
2020-08-29 17:00:00 24.1 9 Sudoeste 24 Sudoeste 0 -- -- 29
2020-08-29 16:00:00 23.6 13 Sur 33 Sur 0 -- -- 30
2020-08-29 15:00:00 22.5 7 Sur 18 Oeste 0 -- -- 34
2020-08-29 14:00:00 20.3 8 Sudoeste 19 Sur 0 -- -- 56
2020-08-29 13:00:00 20.3 10 Este 19 Este 0 -- -- 58
2020-08-29 12:00:00 17.8 6 Sudoeste 9 Sudoeste 0 -- -- 71
2020-08-29 11:00:00 16.6 3 Oeste 10 Sudoeste 0 -- -- 78
2020-08-29 10:00:00 15.6 6 Sudoeste 11 Oeste 0 -- -- 83
2020-08-29 09:00:00 15.2 0 Calma 5 Sur 0 -- -- 86
2020-08-29 08:00:00 14.8 4 Sudoeste 6 Sudoeste 0 -- -- 89
2020-08-29 07:00:00 15.2 3 Sur 5 Sur 0 -- -- 90
2020-08-29 06:00:00 15.8 0 Calma 6 Noroeste 0 -- -- 90
2020-08-29 05:00:00 16.6 3 Noroeste 6 Oeste 0 -- -- 90
2020-08-29 04:00:00 17.3 0 Calma 7 Sudoeste 0 -- -- 87
2020-08-29 03:00:00 17.8 0 Calma 4 Oeste 0 -- -- 92
2020-08-29 02:00:00 18 3 Oeste 9 Sudeste 0 -- -- 91
2020-08-29 01:00:00 18 4 Este 9 Nordeste 0 -- -- 90
2020-08-29 00:00:00 18.9 6 Sur 24 Sudoeste 1.8 -- -- 82
2020-08-28 23:00:00 22.5 9 Sur 17 Sudoeste 0 -- -- 55
2020-08-28 22:00:00 23.3 10 Sudoeste 20 Sur 0 -- -- 56
2020-08-28 21:00:00 24.6 10 Sudoeste 28 Sudoeste 0 -- -- 56
2020-08-28 20:00:00 25.9 10 Sudoeste 30 Sudoeste 0 -- -- 59
2020-08-28 19:00:00 26.9 10 Sur 22 Sur 0 -- -- 57
2020-08-28 18:00:00 27 8 Sur 16 Sur 0 -- -- 57
2020-08-28 17:00:00 25.6 9 Sudoeste 21 Sudoeste 0 -- -- 62
2020-08-28 16:00:00 25 12 Sur 21 Sur 0 -- -- 63
2020-08-28 15:00:00 25 8 Sudeste 17 Oeste 0 -- -- 65
2020-08-28 14:00:00 23.5 8 Sur 21 Sudeste 0 -- -- 72
2020-08-28 13:00:00 24.5 5 Noroeste 17 Sudoeste 0 -- -- 69
2020-08-28 12:00:00 23.8 10 Sur 30 Sudeste 0 -- -- 67
2020-08-28 11:00:00 23.6 13 Sur 26 Sudeste 0 -- -- 69
2020-08-28 10:00:00 22.7 10 Oeste 13 Oeste 0 -- -- 74
2020-08-28 09:00:00 21.4 5 Oeste 10 Oeste 0 -- -- 75
2020-08-28 08:00:00 19.6 0 Calma 8 Sudeste 0 -- -- 81
2020-08-28 07:00:00 19.4 2 Oeste 8 Sur 0 -- -- 80
2020-08-28 06:00:00 20 4 Nordeste 14 Nordeste 0 -- -- 75
2020-08-28 05:00:00 20.1 5 Nordeste 9 Este 0 -- -- 72
2020-08-28 04:00:00 20.9 3 Sudeste 12 Nordeste 0 -- -- 72
2020-08-28 03:00:00 21.3 6 Nordeste 10 Nordeste 0 -- -- 70
2020-08-28 02:00:00 21.4 6 Nordeste 15 Norte 0 -- -- 67
2020-08-28 01:00:00 21.8 6 Nordeste 13 Nordeste 0 -- -- 65
2020-08-28 00:00:00 22.3 0 Calma 9 Nordeste 0 -- -- 60
2020-08-27 23:00:00 23.8 5 Nordeste 11 Nordeste 0 -- -- 54
2020-08-27 22:00:00 25.8 5 Nordeste 11 Nordeste 0 -- -- 49
2020-08-27 21:00:00 29.1 4 Sur 19 Sur 0 -- -- 37
2020-08-27 20:00:00 31.4 10 Sudoeste 18 Sudoeste 0 -- -- 32
2020-08-27 19:00:00 32.1 10 Sur 28 Sudoeste 0 -- -- 38
2020-08-27 18:00:00 32.4 18 Oeste 32 Sudoeste 0 -- -- 38
2020-08-27 17:00:00 32.8 17 Oeste 32 Oeste 0 -- -- 37
2020-08-27 16:00:00 32.5 21 Sudoeste 33 Oeste 0 -- -- 42
2020-08-27 15:00:00 33.1 17 Oeste 33 Oeste 0 -- -- 40
2020-08-27 14:00:00 31.9 11 Oeste 24 Oeste 0 -- -- 37
2020-08-27 13:00:00 30.4 12 Oeste 21 Oeste 0 -- -- 48
2020-08-27 12:00:00 28.6 6 Oeste 15 Oeste 0 -- -- 53
2020-08-27 11:00:00 26.9 4 Noroeste 9 Noroeste 0 -- -- 55
2020-08-27 10:00:00 23.9 2 Este 6 Nordeste 0 -- -- 62
2020-08-27 09:00:00 20.5 0 Calma 6 Nordeste 0 -- -- 73
2020-08-27 08:00:00 17.8 3 Nordeste 9 Nordeste 0 -- -- 83
2020-08-27 07:00:00 18.3 3 Este 7 Nordeste 0 -- -- 81
2020-08-27 06:00:00 18.3 0 Calma 6 Sudeste 0 -- -- 78
2020-08-27 05:00:00 18.9 0 Calma 5 Sur 0 -- -- 74
2020-08-27 04:00:00 20.1 0 Calma 10 Nordeste 0 -- -- 69
2020-08-27 03:00:00 20.7 5 Nordeste 12 Este 0 -- -- 67
2020-08-27 02:00:00 21.1 3 Nordeste 13 Nordeste 0 -- -- 64
2020-08-27 01:00:00 21.5 5 Nordeste 9 Nordeste 0 -- -- 63
2020-08-27 00:00:00 22.3 5 Este 11 Nordeste 0 -- -- 60
2020-08-26 23:00:00 23.1 4 Este 7 Este 0 -- -- 59
2020-08-26 22:00:00 24.8 3 Nordeste 8 Sudoeste 0 -- -- 54
2020-08-26 21:00:00 27 6 Sudoeste 16 Sudoeste 0 -- -- 48
2020-08-26 20:00:00 30.2 12 Sudoeste 24 Oeste 0 -- -- 38
2020-08-26 19:00:00 31.8 16 Oeste 27 Oeste 0 -- -- 37
2020-08-26 18:00:00 33.2 15 Oeste 26 Oeste 0 -- -- 36
2020-08-26 17:00:00 33.3 16 Oeste 23 Oeste 0 -- -- 37
2020-08-26 16:00:00 32.6 16 Sudoeste 29 Oeste 0 -- -- 40
2020-08-26 15:00:00 32.3 18 Oeste 32 Oeste 0 -- -- 41
2020-08-26 14:00:00 31.7 12 Oeste 28 Oeste 0 -- -- 43
2020-08-26 13:00:00 30.4 8 Oeste 16 Noroeste 0 -- -- 42
2020-08-26 12:00:00 28.7 7 Sudoeste 13 Oeste 0 -- -- 43
2020-08-26 11:00:00 26.5 6 Oeste 9 Sudoeste 0 -- -- 44
2020-08-26 10:00:00 23.4 6 Oeste 10 Oeste 0 -- -- 53
2020-08-26 09:00:00 20.4 2 Nordeste 8 Este 0 -- -- 64
2020-08-26 08:00:00 17.2 0 Calma 7 Nordeste 0 -- -- 72
2020-08-26 07:00:00 17.1 3 Este 9 Nordeste 0 -- -- 71
2020-08-26 06:00:00 18.2 5 Este 8 Este 0 -- -- 66
2020-08-26 05:00:00 18.4 2 Sudeste 14 Nordeste 0 -- -- 66
2020-08-26 04:00:00 19.4 5 Este 11 Nordeste 0 -- -- 61
2020-08-26 03:00:00 20.1 3 Nordeste 12 Nordeste 0 -- -- 57
2020-08-26 02:00:00 20.3 6 Nordeste 13 Este 0 -- -- 56
2020-08-26 01:00:00 21.2 10 Nordeste 15 Nordeste 0 -- -- 52
2020-08-26 00:00:00 21.1 4 Este 9 Nordeste 0 -- -- 53
2020-08-25 23:00:00 21.7 2 Norte 9 Sur 0 -- -- 50
2020-08-25 22:00:00 23.6 7 Este 13 Nordeste 0 -- -- 44
2020-08-25 21:00:00 26.2 0 Calma 7 Sudoeste 0 -- -- 39
2020-08-25 20:00:00 31.3 8 Sudoeste 18 Sudoeste 0 -- -- 29
2020-08-25 19:00:00 32.2 14 Oeste 23 Oeste 0 -- -- 28
2020-08-25 18:00:00 32.9 13 Sudoeste 25 Sudoeste 0 -- -- 27
2020-08-25 17:00:00 32.9 15 Sudoeste 26 Oeste 0 -- -- 27
2020-08-25 16:00:00 32.8 17 Sudoeste 28 Sudoeste 0 -- -- 27
2020-08-25 15:00:00 32.3 8 Oeste 19 Oeste 0 -- -- 27
2020-08-25 14:00:00 31 12 Oeste 19 Oeste 0 -- -- 27
2020-08-25 13:00:00 29.5 10 Oeste 18 Oeste 0 -- -- 32
2020-08-25 12:00:00 26.8 7 Oeste 12 Noroeste 0 -- -- 38
2020-08-25 11:00:00 23.9 5 Oeste 10 Sudoeste 0 -- -- 44
2020-08-25 10:00:00 20.3 6 Oeste 9 Oeste 0 -- -- 50
2020-08-25 09:00:00 17.5 4 Nordeste 7 Nordeste 0 -- -- 58
2020-08-25 08:00:00 13.4 4 Este 8 Sudeste 0 -- -- 71
2020-08-25 07:00:00 12.8 3 Sudeste 9 Sudeste 0 -- -- 73
2020-08-25 06:00:00 14.3 6 Este 10 Nordeste 0 -- -- 66
2020-08-25 05:00:00 14.7 5 Este 8 Este 0 -- -- 64
2020-08-25 04:00:00 15.4 4 Este 10 Nordeste 0 -- -- 61
2020-08-25 03:00:00 16 5 Este 13 Este 0 -- -- 58
2020-08-25 02:00:00 16.9 3 Nordeste 12 Este 0 -- -- 54
2020-08-25 01:00:00 17.5 8 Este 15 Nordeste 0 -- -- 50
2020-08-25 00:00:00 17.7 6 Este 12 Nordeste 0 -- -- 50
2020-08-24 23:00:00 19.7 5 Este 11 Este 0 -- -- 44
2020-08-24 22:00:00 21 6 Nordeste 12 Nordeste 0 -- -- 41
2020-08-24 21:00:00 24.5 6 Sur 15 Sudoeste 0 -- -- 33
2020-08-24 20:00:00 27.8 9 Sudoeste 19 Sudoeste 0 -- -- 26
2020-08-24 19:00:00 28.5 12 Sudoeste 24 Sur 0 -- -- 27
2020-08-24 18:00:00 28.4 14 Sudoeste 24 Sudoeste 0 -- -- 30
2020-08-24 17:00:00 28.5 15 Sudoeste 30 Oeste 0 -- -- 31
2020-08-24 16:00:00 27.6 19 Sudoeste 32 Oeste 0 -- -- 34
2020-08-24 15:00:00 27.2 19 Sudoeste 32 Oeste 0 -- -- 35
2020-08-24 14:00:00 26.5 18 Sudoeste 33 Oeste 0 -- -- 40
2020-08-24 13:00:00 26.1 15 Oeste 21 Oeste 0 -- -- 38
2020-08-24 12:00:00 23.9 8 Oeste 15 Sudoeste 0 -- -- 50
2020-08-24 11:00:00 22 7 Sudoeste 13 Sudoeste 0 -- -- 50
2020-08-24 10:00:00 19 4 Oeste 8 Oeste 0 -- -- 49
2020-08-24 09:00:00 16.4 3 Este 9 Este 0 -- -- 59
2020-08-24 08:00:00 12.5 5 Nordeste 8 Este 0 -- -- 73
2020-08-24 07:00:00 12.9 4 Nordeste 9 Este 0 -- -- 69
2020-08-24 06:00:00 13.9 5 Este 10 Nordeste 0 -- -- 65
2020-08-24 05:00:00 14.4 4 Este 8 Nordeste 0 -- -- 63
2020-08-24 04:00:00 15.5 5 Este 9 Este 0 -- -- 59
2020-08-24 03:00:00 16 4 Este 11 Nordeste 0 -- -- 56
2020-08-24 02:00:00 16.7 4 Este 10 Nordeste 0 -- -- 53
2020-08-24 01:00:00 17.5 4 Sur 14 Nordeste 0 -- -- 49
2020-08-24 00:00:00 18.3 6 Nordeste 13 Nordeste 0 -- -- 47
2020-08-23 23:00:00 19.9 5 Este 14 Nordeste 0 -- -- 44
2020-08-23 22:00:00 22 3 Noroeste 11 Sur 0 -- -- 39
2020-08-23 21:00:00 25.1 8 Sur 16 Sur 0 -- -- 31
2020-08-23 20:00:00 26.8 9 Sur 18 Sur 0 -- -- 28
2020-08-23 19:00:00 28.8 13 Sudoeste 26 Sudoeste 0 -- -- 25
2020-08-23 18:00:00 29.2 15 Oeste 26 Oeste 0 -- -- 26
2020-08-23 17:00:00 29.1 11 Sudoeste 31 Sur 0 -- -- 26
2020-08-23 16:00:00 28.4 17 Sudoeste 31 Sudoeste 0 -- -- 25
2020-08-23 15:00:00 27.6 15 Sudoeste 28 Oeste 0 -- -- 28
2020-08-23 14:00:00 27.4 13 Sudoeste 31 Oeste 0 -- -- 26
2020-08-23 13:00:00 26.2 22 Oeste 30 Oeste 0 -- -- 34
2020-08-23 12:00:00 24.9 10 Oeste 18 Oeste 0 -- -- 38
2020-08-23 11:00:00 22.4 9 Sudoeste 13 Sudoeste 0 -- -- 34
2020-08-23 10:00:00 19.5 2 Nordeste 5 Sudeste 0 -- -- 40
2020-08-23 09:00:00 15.7 0 Calma 10 Nordeste 0 -- -- 50
2020-08-23 08:00:00 13.2 4 Este 9 Este 0 -- -- 56
2020-08-23 07:00:00 13.2 4 Nordeste 11 Nordeste 0 -- -- 57
2020-08-23 06:00:00 14.1 8 Nordeste 11 Este 0 -- -- 54
2020-08-23 05:00:00 14.3 5 Este 10 Nordeste 0 -- -- 54
2020-08-23 04:00:00 15.7 6 Este 13 Nordeste 0 -- -- 49
2020-08-23 03:00:00 16.4 9 Nordeste 15 Nordeste 0 -- -- 47
2020-08-23 02:00:00 17 4 Este 11 Nordeste 0 -- -- 45
2020-08-23 01:00:00 18.4 5 Nordeste 12 Nordeste 0 -- -- 41
2020-08-23 00:00:00 19.3 6 Este 13 Este 0 -- -- 39